Time;durP1;ratioP1;P1;durP2;ratioP2;P2;SDS_P1;SDS_P2;PMS_P1;PMS_P2;Temp;Humidity;BMP_temperature;BMP_pressure;BME280_temperature;BME280_humidity;BME280_pressure;Samples;Min_cycle;Max_cycle;Signal;HPM_P1;HPM_P2
2021/01/18 00:01:35;;;;;;;34.05;3.58;;;2.30;96.60;;;;;;5026759;28;20091;-71
2021/01/18 00:04:01;;;;;;;30.15;3.00;;;2.30;96.60;;;;;;5027772;28;20488;-72
2021/01/18 00:06:27;;;;;;;31.15;2.85;;;2.30;96.60;;;;;;5023857;28;20045;-72
2021/01/18 00:08:53;;;;;;;25.77;2.63;;;2.20;96.50;;;;;;5025061;28;20511;-72
2021/01/18 00:11:21;;;;;;;21.08;2.30;;;2.20;96.50;;;;;;5026109;28;20037;-71
2021/01/18 00:13:48;;;;;;;29.98;2.95;;;2.20;96.50;;;;;;5023141;28;20041;-72
2021/01/18 00:16:15;;;;;;;18.48;2.17;;;2.20;96.50;;;;;;5025859;28;20049;-72
2021/01/18 00:18:43;;;;;;;22.35;2.78;;;2.20;96.40;;;;;;5027386;28;20047;-72
2021/01/18 00:21:08;;;;;;;19.77;2.25;;;2.10;96.40;;;;;;5021817;28;20112;-71
2021/01/18 00:23:38;;;;;;;31.27;3.03;;;2.20;96.40;;;;;;5022004;28;20343;-72
2021/01/18 00:26:05;;;;;;;28.10;3.08;;;2.10;96.50;;;;;;5022439;28;20048;-71
2021/01/18 00:28:31;;;;;;;24.92;2.10;;;2.10;96.50;;;;;;5025117;28;20034;-71
2021/01/18 00:30:59;;;;;;;21.33;2.55;;;2.20;96.60;;;;;;5024320;28;20068;-72
2021/01/18 00:33:25;;;;;;;30.85;2.55;;;2.20;96.60;;;;;;5025809;28;20042;-72
2021/01/18 00:35:50;;;;;;;32.83;4.22;;;2.10;96.50;;;;;;5027454;28;20447;-72
2021/01/18 00:38:16;;;;;;;22.90;2.20;;;2.10;96.50;;;;;;5024417;28;20029;-72
2021/01/18 00:40:42;;;;;;;26.70;1.85;;;2.30;96.60;;;;;;5026453;28;20036;-72
2021/01/18 00:43:08;;;;;;;17.08;2.17;;;2.20;96.60;;;;;;5021159;28;20029;-72
2021/01/18 00:45:33;;;;;;;23.60;3.45;;;2.10;96.60;;;;;;5030735;28;20052;-72
2021/01/18 00:47:59;;;;;;;27.63;2.88;;;2.10;96.60;;;;;;5026179;28;20122;-72
2021/01/18 00:50:27;;;;;;;29.00;2.53;;;2.20;96.50;;;;;;5030419;28;20395;-72
2021/01/18 00:52:54;;;;;;;25.73;2.35;;;2.20;96.50;;;;;;5027891;28;20061;-72
2021/01/18 00:55:22;;;;;;;22.05;3.10;;;2.00;96.40;;;;;;5027853;28;20149;-72
2021/01/18 00:57:48;;;;;;;19.25;2.58;;;2.10;96.40;;;;;;5027714;28;20418;-72
2021/01/18 01:00:19;;;;;;;27.73;2.40;;;2.00;96.40;;;;;;5032801;28;20041;-72
2021/01/18 01:02:47;;;;;;;21.30;3.30;;;2.00;96.40;;;;;;5028936;28;20069;-72
2021/01/18 01:05:15;;;;;;;31.48;3.55;;;2.00;96.40;;;;;;5028822;28;20053;-72
2021/01/18 01:07:43;;;;;;;25.55;3.75;;;1.90;96.30;;;;;;5027518;28;20499;-72
2021/01/18 01:10:21;;;;;;;18.38;2.65;;;1.90;96.20;;;;;;5035380;28;20065;-72
2021/01/18 01:12:52;;;;;;;20.10;2.22;;;1.80;96.20;;;;;;5029514;28;20039;-72
2021/01/18 01:15:18;;;;;;;23.13;3.80;;;1.80;96.20;;;;;;5029340;28;20069;-72
2021/01/18 01:17:45;;;;;;;22.77;2.60;;;1.80;96.30;;;;;;5028104;28;20065;-72
2021/01/18 01:20:13;;;;;;;18.92;2.78;;;1.70;96.20;;;;;;5027935;28;20357;-72
2021/01/18 01:22:39;;;;;;;25.83;2.35;;;1.70;96.30;;;;;;5028862;28;20037;-72
2021/01/18 01:25:10;;;;;;;20.40;2.38;;;1.70;96.30;;;;;;5032887;28;20041;-72
2021/01/18 01:27:36;;;;;;;16.15;2.08;;;1.70;96.30;;;;;;5028705;28;20041;-72
2021/01/18 01:30:23;;;;;;;17.08;1.95;;;1.60;96.20;;;;;;5030380;28;20488;-72
2021/01/18 01:32:51;;;;;;;21.05;1.83;;;1.60;96.20;;;;;;5029978;28;20068;-72
2021/01/18 01:35:19;;;;;;;21.13;2.10;;;1.60;96.20;;;;;;5023853;28;20033;-72
2021/01/18 01:37:45;;;;;;;24.15;2.40;;;1.60;96.30;;;;;;5026044;28;20073;-72
2021/01/18 01:40:15;;;;;;;21.95;3.03;;;1.60;96.30;;;;;;5031715;28;20538;-72
2021/01/18 01:42:41;;;;;;;23.38;2.50;;;1.50;96.20;;;;;;5035706;28;20132;-71
2021/01/18 01:45:09;;;;;;;18.27;2.17;;;1.50;96.20;;;;;;5027703;28;20053;-72
2021/01/18 01:47:40;;;;;;;26.23;2.97;;;1.50;96.30;;;;;;5030679;28;20037;-72
2021/01/18 01:50:13;;;;;;;23.13;2.33;;;1.50;96.30;;;;;;5025200;28;20049;-72
2021/01/18 01:52:44;;;;;;;19.10;2.92;;;1.50;96.30;;;;;;5027329;28;20033;-71
2021/01/18 01:55:22;;;;;;;15.95;3.10;;;1.40;96.30;;;;;;5025005;28;20080;-72
2021/01/18 01:57:48;;;;;;;14.85;2.25;;;1.50;96.30;;;;;;5023416;28;20501;-72
2021/01/18 02:00:16;;;;;;;24.85;3.13;;;1.50;96.40;;;;;;5027318;28;20042;-72
2021/01/18 02:02:41;;;;;;;19.58;2.85;;;1.50;96.40;;;;;;5031219;28;20040;-72
2021/01/18 02:05:13;;;;;;;25.95;3.88;;;1.50;96.50;;;;;;5026605;28;20045;-71
2021/01/18 02:07:39;;;;;;;24.13;3.70;;;1.50;96.50;;;;;;5027090;28;20037;-72
2021/01/18 02:10:05;;;;;;;21.27;2.88;;;1.60;96.50;;;;;;5030927;28;20092;-71
2021/01/18 02:12:31;;;;;;;26.75;3.30;;;1.60;96.50;;;;;;5029183;28;20483;-72
2021/01/18 02:15:10;;;;;;;28.67;2.88;;;1.60;96.50;;;;;;5026667;28;20056;-72
2021/01/18 02:17:54;;;;;;;18.38;2.70;;;1.60;96.60;;;;;;5025366;28;20037;-72
2021/01/18 02:20:47;;;;;;;21.25;2.75;;;1.60;96.50;;;;;;5024017;28;20138;-72
2021/01/18 02:23:50;;;;;;;23.67;3.22;;;1.60;96.50;;;;;;5023071;28;20041;-71
2021/01/18 02:26:41;;;;;;;15.23;2.55;;;1.60;96.60;;;;;;5025347;28;20107;-72
2021/01/18 02:29:37;;;;;;;20.67;2.92;;;1.60;96.60;;;;;;5025177;28;20037;-71
2021/01/18 02:32:44;;;;;;;22.65;3.17;;;1.50;96.50;;;;;;5027600;28;20076;-71
2021/01/18 02:35:44;;;;;;;20.38;2.75;;;1.60;96.60;;;;;;5022296;28;20484;-72
2021/01/18 02:38:23;;;;;;;20.95;2.88;;;1.50;96.60;;;;;;5032038;28;20104;-71
2021/01/18 02:40:52;;;;;;;24.05;3.05;;;1.50;96.60;;;;;;5028310;28;20048;-71
2021/01/18 02:43:21;;;;;;;26.67;3.20;;;1.50;96.70;;;;;;5028321;28;20079;-72
2021/01/18 02:45:49;;;;;;;21.92;3.13;;;1.50;96.60;;;;;;5026892;28;20048;-71
2021/01/18 02:48:15;;;;;;;22.23;2.67;;;1.60;96.80;;;;;;5024006;28;20490;-71
2021/01/18 02:50:43;;;;;;;22.17;3.22;;;1.60;96.80;;;;;;5025726;28;20087;-72
2021/01/18 02:53:09;;;;;;;25.63;3.05;;;1.60;96.70;;;;;;5026982;28;20144;-71
2021/01/18 02:55:35;;;;;;;26.90;3.58;;;1.60;96.70;;;;;;5028230;28;20542;-71
2021/01/18 02:58:07;;;;;;;32.22;3.40;;;1.60;96.70;;;;;;5027633;28;20041;-71
2021/01/18 03:00:44;;;;;;;28.92;3.45;;;1.70;96.80;;;;;;5026073;28;20064;-71
2021/01/18 03:03:25;;;;;;;23.92;3.50;;;1.70;96.70;;;;;;5025663;28;20037;-71
2021/01/18 03:06:14;;;;;;;26.52;3.53;;;1.60;96.70;;;;;;5026365;28;20041;-71
2021/01/18 03:08:42;;;;;;;25.77;4.32;;;1.70;96.70;;;;;;5024164;28;20033;-71
2021/01/18 03:11:14;;;;;;;31.45;3.08;;;1.60;96.70;;;;;;5022104;28;20123;-71
2021/01/18 03:13:50;;;;;;;27.48;3.20;;;1.60;96.70;;;;;;5022404;28;20042;-71
2021/01/18 03:16:23;;;;;;;21.77;3.88;;;1.70;96.80;;;;;;5027501;28;20041;-71
2021/01/18 03:18:50;;;;;;;28.33;3.47;;;1.60;96.70;;;;;;5020967;28;20068;-71
2021/01/18 03:21:17;;;;;;;18.20;3.13;;;1.60;96.70;;;;;;5024511;28;20041;-71
2021/01/18 03:23:44;;;;;;;26.55;2.78;;;1.60;96.70;;;;;;5022800;28;20077;-71
2021/01/18 03:26:10;;;;;;;25.52;3.63;;;1.60;96.70;;;;;;5024384;28;20404;-71
2021/01/18 03:28:36;;;;;;;27.55;3.75;;;1.60;96.80;;;;;;5024475;28;20044;-71
2021/01/18 03:31:02;;;;;;;23.60;3.25;;;1.70;96.80;;;;;;5030094;28;20037;-71
2021/01/18 03:33:27;;;;;;;23.67;3.33;;;1.60;96.70;;;;;;5026109;28;20119;-71
2021/01/18 03:35:54;;;;;;;33.28;4.15;;;1.70;96.70;;;;;;5024698;28;20084;-71
2021/01/18 03:38:21;;;;;;;29.00;3.33;;;1.60;96.80;;;;;;5021863;28;20037;-71
2021/01/18 03:40:47;;;;;;;20.85;3.13;;;1.70;96.80;;;;;;5027091;28;20057;-71
2021/01/18 03:43:13;;;;;;;21.63;3.70;;;1.60;96.80;;;;;;5015002;28;20050;-71
2021/01/18 03:45:41;;;;;;;23.67;3.83;;;1.60;96.70;;;;;;5027482;28;20052;-71
2021/01/18 03:48:08;;;;;;;27.75;3.30;;;1.70;96.80;;;;;;5024796;28;20403;-71
2021/01/18 03:50:34;;;;;;;39.92;4.72;;;1.80;96.80;;;;;;5025349;28;20060;-71
2021/01/18 03:53:00;;;;;;;28.42;3.40;;;1.70;96.80;;;;;;5022885;28;20038;-71
2021/01/18 03:55:26;;;;;;;27.40;3.00;;;1.70;96.80;;;;;;5028996;28;20044;-71
2021/01/18 03:57:54;;;;;;;27.35;3.20;;;1.60;96.70;;;;;;5024758;28;20038;-71
2021/01/18 04:00:24;;;;;;;18.02;2.53;;;1.60;96.70;;;;;;5024008;28;20083;-71
2021/01/18 04:02:51;;;;;;;22.75;3.20;;;1.60;96.70;;;;;;5022886;28;20083;-71
2021/01/18 04:05:18;;;;;;;31.85;3.22;;;1.60;96.70;;;;;;5026817;28;20052;-71
2021/01/18 04:07:44;;;;;;;22.90;3.33;;;1.60;96.70;;;;;;5027675;28;20116;-71
2021/01/18 04:10:11;;;;;;;23.73;3.08;;;1.60;96.70;;;;;;5025985;28;20045;-71
2021/01/18 04:12:39;;;;;;;26.15;3.25;;;1.60;96.70;;;;;;5020215;28;20452;-71
2021/01/18 04:15:06;;;;;;;25.02;3.25;;;1.50;96.70;;;;;;5025899;28;20526;-71
2021/01/18 04:17:31;;;;;;;22.05;3.08;;;1.50;96.60;;;;;;5024994;28;20041;-71
2021/01/18 04:19:57;;;;;;;21.60;2.72;;;1.50;96.70;;;;;;5031878;28;20471;-71
2021/01/18 04:22:23;;;;;;;25.42;4.18;;;1.50;96.50;;;;;;5028047;28;20099;-71
2021/01/18 04:24:48;;;;;;;22.70;2.50;;;1.40;96.50;;;;;;5029940;28;20127;-71
2021/01/18 04:27:14;;;;;;;35.00;3.20;;;1.40;96.60;;;;;;5026717;28;20041;-71
2021/01/18 04:29:39;;;;;;;27.58;2.78;;;1.40;96.60;;;;;;5029212;28;20671;-71
2021/01/18 04:32:05;;;;;;;29.60;3.88;;;1.40;96.60;;;;;;5030169;28;20029;-71
2021/01/18 04:34:31;;;;;;;22.20;3.40;;;1.40;96.60;;;;;;5031356;28;20037;-71
2021/01/18 04:36:59;;;;;;;19.40;3.42;;;1.40;96.60;;;;;;5029649;28;20065;-71
2021/01/18 04:39:25;;;;;;;20.08;3.00;;;1.40;96.50;;;;;;5027937;28;20029;-71
2021/01/18 04:41:50;;;;;;;19.83;3.80;;;1.40;96.50;;;;;;5031649;28;20120;-71
2021/01/18 04:44:16;;;;;;;23.90;3.75;;;1.40;96.50;;;;;;5020166;28;20030;-71
2021/01/18 04:46:44;;;;;;;23.67;4.95;;;1.40;96.60;;;;;;5032311;28;20434;-71
2021/01/18 04:49:14;;;;;;;29.38;5.60;;;1.40;96.70;;;;;;5026940;28;20037;-71
2021/01/18 04:51:52;;;;;;;23.92;4.65;;;1.50;96.70;;;;;;5030209;28;20030;-71
2021/01/18 04:54:20;;;;;;;29.42;5.82;;;1.50;96.70;;;;;;5028653;28;20065;-71
2021/01/18 04:57:14;;;;;;;28.13;5.70;;;1.50;96.70;;;;;;5030989;28;20044;-71
2021/01/18 04:59:48;;;;;;;27.85;6.43;;;1.50;96.80;;;;;;5026407;28;20044;-71
2021/01/18 05:02:19;;;;;;;25.67;6.38;;;1.60;96.90;;;;;;5028929;28;20041;-71
2021/01/18 05:04:47;;;;;;;27.00;6.65;;;1.60;96.90;;;;;;5026283;28;20103;-71
2021/01/18 05:07:34;;;;;;;23.75;6.88;;;1.70;96.90;;;;;;5026204;28;20069;-71
2021/01/18 05:10:05;;;;;;;38.38;8.80;;;1.70;96.90;;;;;;5029778;28;20046;-71
2021/01/18 05:12:34;;;;;;;31.63;7.70;;;1.70;96.90;;;;;;5027876;28;20491;-71
2021/01/18 05:15:02;;;;;;;28.80;7.95;;;1.70;97.00;;;;;;5026932;28;20064;-71
2021/01/18 05:17:47;;;;;;;36.88;7.47;;;1.80;97.00;;;;;;5029390;28;20107;-71
2021/01/18 05:20:18;;;;;;;31.58;8.25;;;1.80;97.00;;;;;;5025948;28;20094;-71
2021/01/18 05:22:55;;;;;;;28.02;8.88;;;1.80;97.00;;;;;;5027490;28;20109;-71
2021/01/18 05:25:22;;;;;;;29.60;9.05;;;1.90;96.90;;;;;;5024180;28;20042;-71
2021/01/18 05:28:08;;;;;;;40.60;9.88;;;2.00;97.00;;;;;;5029497;28;20038;-71
2021/01/18 05:30:35;;;;;;;33.88;9.13;;;1.80;97.20;;;;;;5025109;28;20041;-71
2021/01/18 05:33:07;;;;;;;24.55;8.68;;;1.80;96.90;;;;;;5028932;28;20456;-71
2021/01/18 05:35:35;;;;;;;38.25;10.48;;;1.90;97.00;;;;;;5025029;28;20120;-71
2021/01/18 05:38:10;;;;;;;32.85;8.63;;;1.90;96.90;;;;;;5026715;28;20108;-71
2021/01/18 05:40:47;;;;;;;36.55;9.23;;;1.90;96.90;;;;;;5027897;28;20043;-71
2021/01/18 05:43:14;;;;;;;32.42;8.82;;;2.00;96.90;;;;;;5025886;28;20033;-72
2021/01/18 05:45:42;;;;;;;35.38;9.45;;;2.00;96.90;;;;;;5027053;28;20850;-72
2021/01/18 05:48:09;;;;;;;23.52;8.93;;;2.00;96.80;;;;;;5026185;28;20041;-72
2021/01/18 05:50:36;;;;;;;31.77;8.65;;;2.00;96.90;;;;;;5028440;28;20558;-72
2021/01/18 05:53:24;;;;;;;30.10;9.43;;;2.00;96.80;;;;;;5028423;28;20050;-72
2021/01/18 05:55:50;;;;;;;40.03;9.02;;;2.00;96.80;;;;;;5026873;28;20069;-72
2021/01/18 05:58:32;;;;;;;28.77;9.93;;;2.00;97.10;;;;;;5027575;28;20484;-72
2021/01/18 06:00:59;;;;;;;34.15;9.88;;;2.00;96.80;;;;;;5021925;28;20446;-72
2021/01/18 06:03:32;;;;;;;31.10;9.30;;;2.00;96.80;;;;;;5027355;28;20038;-72
2021/01/18 06:06:01;;;;;;;32.97;8.88;;;2.00;96.80;;;;;;5027622;28;20038;-72
2021/01/18 06:08:27;;;;;;;36.72;9.10;;;2.00;96.80;;;;;;5028549;28;20042;-72
2021/01/18 06:10:55;;;;;;;29.90;9.75;;;2.00;96.80;;;;;;5029961;28;20052;-72
2021/01/18 06:13:34;;;;;;;28.63;10.20;;;2.10;96.80;;;;;;5037235;28;20041;-72
2021/01/18 06:16:03;;;;;;;35.65;9.80;;;2.00;96.80;;;;;;5028662;28;20585;-72
2021/01/18 06:18:33;;;;;;;29.83;9.75;;;2.00;96.80;;;;;;5026396;28;20050;-72
2021/01/18 06:21:00;;;;;;;29.88;10.32;;;2.00;96.80;;;;;;5028537;28;20041;-72
2021/01/18 06:23:26;;;;;;;35.00;9.90;;;2.00;96.90;;;;;;5036212;28;20041;-72
2021/01/18 06:25:54;;;;;;;39.55;10.98;;;2.10;96.80;;;;;;5026449;28;20068;-72
2021/01/18 06:28:27;;;;;;;34.88;9.88;;;2.10;97.20;;;;;;5028741;28;20041;-72
2021/01/18 06:30:59;;;;;;;35.30;10.13;;;2.20;96.90;;;;;;5028807;28;20037;-72
2021/01/18 06:33:47;;;;;;;38.45;9.63;;;2.10;96.90;;;;;;5026468;28;20072;-72
2021/01/18 06:36:20;;;;;;;33.00;9.68;;;2.20;96.90;;;;;;5029282;28;20129;-72
2021/01/18 06:38:57;;;;;;;34.40;9.38;;;2.20;97.00;;;;;;5031970;28;20087;-72
2021/01/18 06:41:26;;;;;;;34.78;8.45;;;2.30;97.00;;;;;;5025109;28;20777;-72
2021/01/18 06:43:52;;;;;;;32.30;9.50;;;2.40;96.90;;;;;;5028077;28;20045;-72
2021/01/18 06:46:24;;;;;;;31.77;8.65;;;2.40;96.90;;;;;;5029762;28;20037;-72
2021/01/18 06:48:52;;;;;;;34.72;10.15;;;2.30;96.90;;;;;;5030680;28;20053;-72
2021/01/18 06:51:23;;;;;;;25.55;9.85;;;2.30;96.90;;;;;;5034042;28;20099;-72
2021/01/18 06:53:51;;;;;;;31.40;9.38;;;2.40;96.90;;;;;;5021750;28;20690;-72
2021/01/18 06:56:22;;;;;;;35.53;9.88;;;2.50;96.90;;;;;;5027960;28;20128;-72
2021/01/18 06:59:05;;;;;;;39.25;10.05;;;2.40;96.90;;;;;;5015918;28;20496;-72
2021/01/18 07:01:31;;;;;;;36.88;11.50;;;2.50;96.90;;;;;;5020856;28;20052;-72
2021/01/18 07:04:02;;;;;;;37.00;11.02;;;2.50;96.90;;;;;;5025982;28;20099;-71
2021/01/18 07:06:31;;;;;;;39.17;10.60;;;2.50;96.90;;;;;;5029448;28;20045;-71
2021/01/18 07:08:59;;;;;;;40.38;12.20;;;2.50;96.90;;;;;;5020794;28;20393;-71
2021/01/18 07:11:25;;;;;;;32.05;10.77;;;2.50;96.90;;;;;;5022418;28;20117;-71
2021/01/18 07:13:51;;;;;;;43.92;12.18;;;2.60;97.00;;;;;;5024440;28;20141;-72
2021/01/18 07:16:19;;;;;;;38.13;11.80;;;2.60;97.00;;;;;;5023419;28;20052;-71
2021/01/18 07:18:51;;;;;;;42.28;13.32;;;2.60;97.00;;;;;;5017718;28;20156;-71
2021/01/18 07:21:19;;;;;;;49.35;14.00;;;2.60;97.00;;;;;;5017254;28;20461;-71
2021/01/18 07:23:54;;;;;;;34.28;12.45;;;2.60;97.00;;;;;;5019189;28;20049;-71
2021/01/18 07:26:37;;;;;;;37.28;13.38;;;2.70;97.00;;;;;;5018802;28;20038;-71
2021/01/18 07:29:07;;;;;;;44.08;14.40;;;2.70;97.00;;;;;;5023128;28;20077;-71
2021/01/18 07:31:35;;;;;;;37.95;12.45;;;2.70;97.00;;;;;;5023372;28;20037;-72
2021/01/18 07:34:01;;;;;;;33.17;12.43;;;2.70;97.00;;;;;;5020805;28;20042;-71
2021/01/18 07:36:29;;;;;;;39.70;13.45;;;2.80;97.00;;;;;;5023509;28;20152;-72
2021/01/18 07:38:55;;;;;;;52.38;13.93;;;2.80;97.00;;;;;;5019515;28;20140;-72
2021/01/18 07:41:30;;;;;;;41.42;14.75;;;2.80;97.00;;;;;;5021521;28;20061;-72
2021/01/18 07:43:56;;;;;;;49.08;14.30;;;2.80;97.00;;;;;;5030398;28;20041;-72
2021/01/18 07:46:30;;;;;;;45.67;14.55;;;2.80;97.00;;;;;;5024705;28;20042;-72
2021/01/18 07:48:56;;;;;;;41.72;14.15;;;2.80;97.00;;;;;;5025003;28;20442;-72
2021/01/18 07:51:23;;;;;;;57.85;15.52;;;2.80;96.90;;;;;;5023175;28;20289;-72
2021/01/18 07:53:49;;;;;;;40.13;14.32;;;2.80;96.90;;;;;;5022188;28;20038;-72
2021/01/18 07:56:28;;;;;;;48.65;15.82;;;2.80;96.90;;;;;;5022885;28;20044;-72
2021/01/18 07:58:57;;;;;;;44.08;15.32;;;2.80;96.90;;;;;;5022135;28;20045;-72
2021/01/18 08:01:36;;;;;;;49.10;15.75;;;2.80;96.90;;;;;;5024212;28;20041;-72
2021/01/18 08:04:19;;;;;;;40.75;14.27;;;2.80;96.90;;;;;;5026458;28;20037;-72
2021/01/18 08:07:14;;;;;;;54.38;15.85;;;2.80;97.00;;;;;;5018727;28;20046;-72
2021/01/18 08:09:40;;;;;;;44.55;14.07;;;2.90;97.00;;;;;;5018034;28;20081;-72
2021/01/18 08:12:31;;;;;;;41.70;14.10;;;2.90;97.00;;;;;;5022933;28;20112;-72
2021/01/18 08:15:05;;;;;;;41.28;14.65;;;2.90;97.00;;;;;;5025532;28;20041;-72
2021/01/18 08:17:30;;;;;;;51.88;15.25;;;2.90;97.00;;;;;;5026176;28;20099;-73
2021/01/18 08:20:13;;;;;;;50.45;15.48;;;2.90;97.00;;;;;;5032474;28;20491;-72
2021/01/18 08:22:40;;;;;;;52.90;15.32;;;2.90;97.00;;;;;;5023700;28;20060;-73
2021/01/18 08:25:07;;;;;;;49.20;15.23;;;3.00;97.00;;;;;;5025668;28;20072;-73
2021/01/18 08:27:47;;;;;;;53.97;14.52;;;3.00;97.00;;;;;;5020615;28;20045;-73
2021/01/18 08:30:19;;;;;;;40.70;14.88;;;3.00;97.00;;;;;;5024833;28;20049;-72
2021/01/18 08:33:09;;;;;;;40.78;14.90;;;3.10;97.10;;;;;;5022801;28;20033;-73
2021/01/18 08:35:45;;;;;;;49.38;14.27;;;3.10;97.10;;;;;;5019062;28;20104;-73
2021/01/18 08:38:30;;;;;;;45.55;14.45;;;3.10;97.00;;;;;;5019981;28;20522;-73
2021/01/18 08:41:10;;;;;;;32.75;13.45;;;3.10;97.00;;;;;;5020999;28;20053;-73
2021/01/18 08:43:53;;;;;;;42.70;13.68;;;3.20;97.10;;;;;;5029601;28;20134;-73
2021/01/18 08:46:36;;;;;;;51.45;14.65;;;3.30;97.00;;;;;;5022396;28;20073;-73
2021/01/18 08:49:27;;;;;;;44.30;13.82;;;3.30;97.00;;;;;;5020457;28;20034;-73
2021/01/18 08:51:53;;;;;;;46.97;15.32;;;3.30;97.10;;;;;;5023989;28;20034;-73
2021/01/18 08:54:37;;;;;;;37.70;14.95;;;3.30;97.00;;;;;;5016927;28;20045;-72
2021/01/18 08:57:19;;;;;;;39.78;14.05;;;3.40;97.10;;;;;;5028616;28;20121;-73
2021/01/18 08:59:45;;;;;;;35.47;14.38;;;3.40;97.30;;;;;;5025395;28;20044;-73
2021/01/18 09:02:18;;;;;;;37.30;13.85;;;3.50;97.00;;;;;;5024776;28;20073;-73
2021/01/18 09:04:44;;;;;;;37.83;13.98;;;3.50;97.00;;;;;;5026719;28;20034;-73
2021/01/18 09:07:12;;;;;;;37.15;14.77;;;3.60;97.00;;;;;;5034010;28;20087;-73
2021/01/18 09:09:39;;;;;;;37.28;13.50;;;3.60;96.90;;;;;;5034315;28;20026;-73
2021/01/18 09:12:09;;;;;;;31.75;12.88;;;3.70;96.90;;;;;;5048851;28;20069;-73
2021/01/18 09:14:35;;;;;;;45.35;14.55;;;3.70;96.90;;;;;;5025123;28;20068;-73
2021/01/18 09:17:08;;;;;;;34.78;12.80;;;3.70;96.90;;;;;;5029593;28;20033;-73
2021/01/18 09:19:49;;;;;;;37.13;12.98;;;3.80;96.90;;;;;;5025872;28;20253;-73
2021/01/18 09:22:15;;;;;;;39.92;13.15;;;3.80;96.80;;;;;;5027621;28;20128;-73
2021/01/18 09:24:43;;;;;;;35.88;12.05;;;3.80;96.70;;;;;;5030206;28;20547;-73
2021/01/18 09:27:10;;;;;;;42.58;12.60;;;3.90;96.80;;;;;;5027373;28;20040;-73
2021/01/18 09:29:35;;;;;;;34.75;11.45;;;3.90;96.70;;;;;;5025544;28;20037;-73
2021/01/18 09:32:03;;;;;;;44.28;11.85;;;3.90;96.70;;;;;;5027391;28;20037;-73
2021/01/18 09:34:30;;;;;;;30.27;10.50;;;4.00;96.70;;;;;;5028703;28;20041;-73
2021/01/18 09:37:05;;;;;;;31.92;10.88;;;4.10;96.70;;;;;;5025791;28;20070;-73
2021/01/18 09:39:31;;;;;;;26.10;11.23;;;4.10;96.60;;;;;;5025975;28;20099;-73
2021/01/18 09:41:57;;;;;;;34.70;11.60;;;4.10;96.60;;;;;;5028345;28;20038;-73
2021/01/18 09:44:23;;;;;;;37.72;11.65;;;4.20;96.50;;;;;;5029287;28;20123;-74
2021/01/18 09:46:50;;;;;;;36.03;12.48;;;4.20;96.50;;;;;;5028143;28;20064;-73
2021/01/18 09:49:26;;;;;;;30.70;11.40;;;4.20;96.50;;;;;;5030141;28;20048;-73
2021/01/18 09:51:52;;;;;;;;;;;4.30;96.50;;;;;;5026567;28;20029;-74
2021/01/18 09:54:17;;;;;;;36.20;11.45;;;4.30;96.40;;;;;;5026226;28;19983;-73
2021/01/18 09:56:44;;;;;;;33.38;10.90;;;4.30;96.40;;;;;;5025890;28;20033;-73
2021/01/18 09:59:12;;;;;;;31.77;11.70;;;4.40;96.50;;;;;;5026558;28;20129;-73
2021/01/18 10:01:40;;;;;;;34.17;12.10;;;4.40;96.50;;;;;;5029017;28;20455;-73
2021/01/18 10:04:07;;;;;;;33.08;11.02;;;4.50;96.40;;;;;;5024949;28;20033;-73
2021/01/18 10:06:35;;;;;;;33.97;11.63;;;4.40;96.40;;;;;;5029193;28;20038;-73
2021/01/18 10:09:09;;;;;;;28.83;11.35;;;4.50;96.30;;;;;;5023082;28;20049;-74
2021/01/18 10:11:45;;;;;;;37.65;11.82;;;4.50;96.30;;;;;;5025297;28;20033;-74
2021/01/18 10:14:19;;;;;;;32.75;10.43;;;4.50;96.30;;;;;;5024723;28;20123;-73
2021/01/18 10:17:05;;;;;;;31.70;10.82;;;4.50;96.40;;;;;;5024752;28;20053;-73
2021/01/18 10:19:33;;;;;;;31.45;11.73;;;4.60;96.30;;;;;;5036118;28;20432;-73
2021/01/18 10:22:00;;;;;;;37.97;10.70;;;4.60;96.30;;;;;;5023189;28;20083;-73
2021/01/18 10:24:34;;;;;;;30.42;9.52;;;4.60;96.30;;;;;;5026906;28;20033;-73
2021/01/18 10:27:15;;;;;;;29.27;10.00;;;4.60;96.30;;;;;;5028523;28;20114;-73
2021/01/18 10:30:11;;;;;;;27.35;9.00;;;4.70;96.30;;;;;;5025319;28;20479;-73
2021/01/18 10:32:41;;;;;;;31.42;9.15;;;4.70;96.30;;;;;;5025940;28;20041;-73
2021/01/18 10:35:26;;;;;;;31.95;8.25;;;4.80;96.30;;;;;;5029726;28;20064;-73
2021/01/18 10:37:53;;;;;;;23.83;7.13;;;4.80;96.20;;;;;;5028924;28;20033;-73
2021/01/18 10:40:22;;;;;;;30.27;8.05;;;4.80;96.20;;;;;;5028838;28;20029;-74
2021/01/18 10:42:53;;;;;;;27.83;8.30;;;4.80;96.10;;;;;;5029342;28;20135;-74
2021/01/18 10:45:22;;;;;;;24.95;6.95;;;4.90;96.00;;;;;;5027677;28;20399;-74
2021/01/18 10:47:57;;;;;;;26.58;6.70;;;4.90;96.00;;;;;;5026584;28;20470;-74
2021/01/18 10:50:25;;;;;;;27.55;8.50;;;4.90;96.00;;;;;;5029011;28;20037;-74
2021/01/18 10:53:03;;;;;;;24.52;7.30;;;4.90;96.00;;;;;;5027820;28;20037;-74
2021/01/18 10:55:29;;;;;;;28.02;7.45;;;5.00;95.90;;;;;;5028395;28;20099;-74
2021/01/18 10:57:55;;;;;;;28.67;6.20;;;5.00;95.90;;;;;;5019662;28;20428;-73
2021/01/18 11:00:23;;;;;;;28.05;6.22;;;5.00;95.90;;;;;;5027759;28;20056;-73
2021/01/18 11:02:56;;;;;;;22.95;5.78;;;5.10;95.80;;;;;;5025402;28;20411;-74
2021/01/18 11:05:39;;;;;;;26.42;7.47;;;5.10;95.80;;;;;;5024106;28;20107;-73
2021/01/18 11:08:09;;;;;;;31.67;7.20;;;5.10;95.70;;;;;;5027498;28;20500;-73
2021/01/18 11:10:42;;;;;;;30.45;6.70;;;5.10;95.70;;;;;;5025990;28;20042;-74
2021/01/18 11:13:10;;;;;;;27.23;7.38;;;5.10;95.70;;;;;;5023687;28;20112;-75
2021/01/18 11:15:39;;;;;;;34.92;7.10;;;5.10;95.80;;;;;;5025607;28;20432;-73
2021/01/18 11:18:06;;;;;;;23.15;6.50;;;5.10;95.80;;;;;;5029254;28;20037;-74
2021/01/18 11:20:32;;;;;;;27.77;7.93;;;5.10;96.00;;;;;;5026715;28;20574;-74
2021/01/18 11:22:58;;;;;;;21.50;6.53;;;5.10;96.00;;;;;;5017688;28;20065;-74
2021/01/18 11:25:24;;;;;;;22.73;6.18;;;5.10;96.00;;;;;;5022632;28;20123;-73
2021/01/18 11:27:50;;;;;;;32.85;7.65;;;5.10;96.00;;;;;;5023186;28;20030;-74
2021/01/18 11:30:16;;;;;;;24.70;6.20;;;5.20;96.00;;;;;;5029275;28;20041;-74
2021/01/18 11:32:42;;;;;;;25.95;5.88;;;5.20;96.00;;;;;;5024076;28;20056;-74
2021/01/18 11:35:10;;;;;;;29.88;6.85;;;5.20;95.90;;;;;;5019562;28;20045;-74
2021/01/18 11:37:37;;;;;;;31.83;6.32;;;5.20;96.00;;;;;;5022272;28;20037;-74
2021/01/18 11:40:08;;;;;;;23.58;6.20;;;5.20;96.00;;;;;;5020037;28;20416;-74
2021/01/18 11:42:34;;;;;;;26.55;5.32;;;5.20;96.00;;;;;;5020755;28;20037;-74
2021/01/18 11:45:03;;;;;;;27.80;5.80;;;5.20;96.00;;;;;;5022168;28;20026;-74
2021/01/18 11:47:37;;;;;;;18.05;5.28;;;5.30;96.00;;;;;;5023915;28;20060;-74
2021/01/18 11:50:07;;;;;;;29.35;5.70;;;5.30;95.90;;;;;;5043558;28;20040;-74
2021/01/18 11:52:39;;;;;;;20.30;4.47;;;5.30;95.90;;;;;;5026227;28;20034;-74
2021/01/18 11:55:05;;;;;;;21.10;4.93;;;5.40;95.70;;;;;;5030861;28;20576;-74
2021/01/18 11:57:31;;;;;;;22.50;5.60;;;5.40;95.70;;;;;;5024234;28;20046;-75
2021/01/18 11:59:56;;;;;;;27.83;4.90;;;5.30;95.70;;;;;;5024981;28;20107;-74
2021/01/18 12:02:22;;;;;;;27.15;5.35;;;5.40;95.70;;;;;;5024376;28;20049;-74
2021/01/18 12:04:48;;;;;;;24.65;4.63;;;5.30;95.70;;;;;;5023849;28;20044;-74
2021/01/18 12:07:14;;;;;;;25.17;4.35;;;5.40;95.70;;;;;;5024846;28;20581;-74
2021/01/18 12:09:39;;;;;;;24.40;5.13;;;5.30;95.70;;;;;;5031232;28;20110;-74
2021/01/18 12:12:06;;;;;;;20.42;4.43;;;5.30;95.70;;;;;;5026826;28;20065;-74
2021/01/18 12:14:32;;;;;;;24.08;4.43;;;5.40;95.70;;;;;;5024072;28;20056;-74
2021/01/18 12:17:04;;;;;;;27.23;5.20;;;5.40;95.60;;;;;;5027858;28;20491;-74
2021/01/18 12:19:31;;;;;;;19.33;3.28;;;5.50;95.60;;;;;;5029443;28;20091;-75
2021/01/18 12:21:57;;;;;;;23.33;4.25;;;5.50;95.90;;;;;;5026948;28;20049;-74
2021/01/18 12:24:23;;;;;;;17.40;3.95;;;5.50;95.40;;;;;;5028920;28;20086;-75
2021/01/18 12:26:53;;;;;;;19.92;3.75;;;5.60;95.40;;;;;;5026454;28;20045;-74
2021/01/18 12:29:18;;;;;;;18.67;4.07;;;5.60;95.30;;;;;;5029143;28;20467;-74
2021/01/18 12:31:44;;;;;;;20.60;3.80;;;5.70;95.20;;;;;;5023825;28;20485;-75
2021/01/18 12:34:10;;;;;;;19.08;4.45;;;5.70;95.20;;;;;;5026729;28;20038;-74
2021/01/18 12:36:36;;;;;;;20.70;3.85;;;5.70;95.10;;;;;;5035294;28;20052;-74
2021/01/18 12:39:04;;;;;;;18.33;3.75;;;5.80;94.90;;;;;;5031105;28;20049;-74
2021/01/18 12:41:30;;;;;;;17.27;4.40;;;5.80;94.80;;;;;;5029160;28;20037;-74
2021/01/18 12:43:55;;;;;;;18.15;3.85;;;5.90;94.70;;;;;;5027221;28;20040;-74
2021/01/18 12:46:21;;;;;;;23.70;3.70;;;5.90;94.90;;;;;;5034026;28;20840;-75
2021/01/18 12:48:47;;;;;;;23.52;3.78;;;5.90;94.50;;;;;;5031255;28;20526;-74
2021/01/18 12:51:14;;;;;;;18.90;3.80;;;5.90;94.60;;;;;;5034741;28;20112;-75
2021/01/18 12:53:46;;;;;;;20.40;3.95;;;5.90;94.50;;;;;;5036625;28;20033;-75
2021/01/18 12:56:19;;;;;;;19.45;3.47;;;5.90;94.50;;;;;;5035208;28;20041;-74
2021/01/18 12:58:45;;;;;;;24.55;4.53;;;5.90;94.50;;;;;;5035910;28;20208;-74
2021/01/18 13:01:10;;;;;;;16.08;3.33;;;5.90;94.60;;;;;;5029823;28;20124;-74
2021/01/18 13:03:36;;;;;;;19.80;3.88;;;5.90;94.50;;;;;;5025736;28;20040;-74